Time;durP1;ratioP1;P1;durP2;ratioP2;P2;SDS_P1;SDS_P2;PMS_P1;PMS_P2;Temp;Humidity;BMP_temperature;BMP_pressure;BME280_temperature;BME280_humidity;BME280_pressure;Samples;Min_cycle;Max_cycle;Signal;HPM_P1;HPM_P2
2021/04/28 00:00:56;;;;;;;;;;;15.40;99.90;;;14.97;100.00;100005.94;5054287;28;19936;-62
2021/04/28 00:03:23;;;;;;;;;;;15.50;99.90;;;15.01;100.00;99998.72;5054111;28;19991;-62
2021/04/28 00:05:50;;;;;;;;;;;15.50;99.90;;;15.01;100.00;99998.72;5054739;28;20019;-62
2021/04/28 00:08:17;;;;;;;;;;;15.50;99.90;;;15.00;100.00;99997.09;5054837;28;19975;-62
2021/04/28 00:10:45;;;;;;;;;;;15.60;99.90;;;15.03;100.00;99999.97;5054257;28;19959;-62
2021/04/28 00:13:15;;;;;;;;;;;15.60;99.90;;;15.14;100.00;99998.38;5053891;28;19925;-62
2021/04/28 00:15:45;;;;;;;;;;;15.70;99.90;;;15.18;100.00;99993.03;5054511;28;20019;-62
2021/04/28 00:18:14;;;;;;;;;;;15.70;99.90;;;15.21;100.00;99995.09;5054624;28;20375;-62
2021/04/28 00:20:41;;;;;;;;;;;15.70;99.90;;;15.16;100.00;99990.66;5054196;28;19963;-62
2021/04/28 00:23:09;;;;;;;;;;;15.70;99.90;;;15.13;100.00;99985.09;5052333;28;20375;-62
2021/04/28 00:25:37;;;;;;;;;;;15.60;99.90;;;15.14;100.00;99989.41;5054024;28;20437;-62
2021/04/28 00:28:05;;;;;;;;;;;15.60;99.90;;;15.12;100.00;99987.03;5054591;28;19960;-62
2021/04/28 00:30:33;;;;;;;;;;;15.60;99.90;;;15.14;100.00;99983.94;5053840;28;19925;-62
2021/04/28 00:33:00;;;;;;;;;;;15.60;99.90;;;15.11;100.00;99984.63;5053247;28;19920;-62
2021/04/28 00:35:28;;;;;;;;;;;15.60;99.90;;;15.04;100.00;99982.50;5053809;28;19963;-63
2021/04/28 00:37:56;;;;;;;;;;;15.50;99.90;;;15.04;100.00;99978.97;5054310;28;19986;-62
2021/04/28 00:40:24;;;;;;;;;;;15.50;99.90;;;15.02;100.00;99981.22;5053839;28;20407;-62
2021/04/28 00:42:52;;;;;;;;;;;15.50;99.90;;;14.95;100.00;99973.63;5053057;28;20015;-62
2021/04/28 00:45:20;;;;;;;;;;;15.40;99.90;;;14.84;100.00;99969.75;5053495;28;20019;-63
2021/04/28 00:47:48;;;;;;;;;;;;;;;14.75;100.00;99969.06;5054056;28;19964;-62
2021/04/28 00:50:18;;;;;;;;;;;15.60;99.90;;;14.62;100.00;99962.03;5053413;28;19960;-62
2021/04/28 00:52:47;;;;;;;;;;;15.10;99.90;;;14.48;100.00;99961.53;5053036;28;19925;-62
2021/04/28 00:55:15;;;;;;;;;;;15.00;99.90;;;14.40;100.00;99962.41;5053385;28;20027;-62
2021/04/28 00:57:42;;;;;;;;;;;14.90;99.90;;;14.41;100.00;99947.69;5053822;28;20023;-62
2021/04/28 01:00:13;;;;;;;;;;;14.90;99.90;;;14.36;100.00;99951.41;5053776;28;19932;-62
2021/04/28 01:02:40;;;;;;;;;;;14.90;99.90;;;14.35;100.00;99954.47;5053063;28;19928;-62
2021/04/28 01:05:09;;;;;;;;;;;14.80;99.90;;;14.28;100.00;99941.38;5053249;28;20027;-62
2021/04/28 01:07:37;;;;;;;;;;;14.80;99.90;;;14.23;100.00;99947.00;5053740;28;19924;-62
2021/04/28 01:10:07;;;;;;;;;;;14.70;99.90;;;14.23;100.00;99938.84;5053125;28;19968;-62
2021/04/28 01:12:35;;;;;;;;;;;14.70;99.90;;;14.20;100.00;99934.09;5052589;28;20367;-62
2021/04/28 01:15:02;;;;;;;;;;;14.70;99.90;;;14.19;100.00;99937.97;5053070;28;19978;-62
2021/04/28 01:17:29;;;;;;;;;;;14.60;99.90;;;14.19;100.00;99944.16;5053597;28;20027;-62
2021/04/28 01:19:56;;;;;;;;;;;14.70;99.90;;;14.23;100.00;99936.94;5053336;28;19928;-62
2021/04/28 01:22:24;;;;;;;;;;;14.70;99.90;;;14.27;100.00;99936.28;5052324;28;20406;-62
2021/04/28 01:24:53;;;;;;;;;;;14.70;99.90;;;14.20;100.00;99931.38;5052540;28;20090;-62
2021/04/28 01:27:26;;;;;;;;;;;14.60;99.90;;;14.19;100.00;99932.53;5053306;28;19931;-62
2021/04/28 01:29:54;;;;;;;;;;;14.60;99.90;;;14.17;100.00;99921.97;5053077;28;19987;-62
2021/04/28 01:32:22;;;;;;;;;;;14.60;99.90;;;14.18;100.00;99930.91;5052383;28;20406;-62
2021/04/28 01:34:50;;;;;;;;;;;14.60;99.90;;;14.26;100.00;99926.53;5052236;28;19963;-62
2021/04/28 01:37:19;;;;;;;;;;;14.70;99.90;;;14.32;100.00;99923.25;5052998;28;20430;-62
2021/04/28 01:39:47;;;;;;;;;;;14.70;99.90;;;14.26;100.00;99913.72;5052990;28;20023;-62
2021/04/28 01:42:15;;;;;;;;;;;14.70;99.90;;;14.23;100.00;99920.63;5042794;28;19929;-62
2021/04/28 01:44:43;;;;;;;;;;;14.70;99.90;;;14.32;100.00;99917.03;5032395;28;19960;-62
2021/04/28 01:47:10;;;;;;;;;;;14.80;99.90;;;14.40;100.00;99916.97;5033116;28;20019;-62
2021/04/28 01:49:37;;;;;;;;;;;14.90;99.90;;;14.46;100.00;99915.63;5033083;28;19995;-62
2021/04/28 01:52:05;;;;;;;;;;;14.90;99.90;;;14.49;100.00;99906.78;5031776;28;20376;-62
2021/04/28 01:54:32;;;;;;;;;;;15.00;99.90;;;14.53;100.00;99909.63;5032490;28;19965;-61
2021/04/28 01:57:00;;;;;;;;;;;15.00;99.90;;;14.54;100.00;99917.44;5032862;28;19925;-62
2021/04/28 01:59:28;;;;;;;;;;;15.00;99.90;;;14.52;100.00;99899.88;5032854;28;19964;-62
2021/04/28 02:01:57;;;;;;;;;;;15.00;99.90;;;14.45;100.00;99899.63;5031906;28;20016;-62
2021/04/28 02:04:24;;;;;;;;;;;14.90;99.90;;;14.31;100.00;99896.41;5031880;28;20022;-63
2021/04/28 02:06:52;;;;;;;;;;;14.80;99.90;;;14.28;100.00;99899.78;5032751;28;19964;-62
2021/04/28 02:09:19;;;;;;;;;;;14.80;99.90;;;14.31;100.00;99899.94;5032803;28;19987;-62
2021/04/28 02:11:46;;;;;;;;;;;14.80;99.90;;;14.33;100.00;99892.25;5031976;28;20027;-62
2021/04/28 02:14:14;;;;;;;;;;;14.80;99.90;;;14.34;100.00;99893.84;5031786;28;20059;-62
2021/04/28 02:16:43;;;;;;;;;;;14.80;99.90;;;14.36;100.00;99891.56;5032456;28;20089;-62
2021/04/28 02:19:11;;;;;;;;;;;14.80;99.90;;;14.38;100.00;99889.28;5032597;28;19987;-62
2021/04/28 02:21:40;;;;;;;;;;;14.90;99.90;;;14.32;100.00;99879.72;5031512;28;19973;-62
2021/04/28 02:24:08;;;;;;;;;;;14.80;99.90;;;14.34;100.00;99882.16;5031763;28;19925;-62
2021/04/28 02:26:35;;;;;;;;;;;14.80;99.90;;;14.39;100.00;99880.00;5032321;28;19925;-62
2021/04/28 02:29:03;;;;;;;;;;;14.80;99.90;;;14.42;100.00;99875.81;5032598;28;19925;-61
2021/04/28 02:31:30;;;;;;;;;;;14.90;99.90;;;14.50;100.00;99883.88;5031583;28;19971;-62
2021/04/28 02:34:00;;;;;;;;;;;15.00;99.90;;;14.54;100.00;99876.63;5031780;28;19967;-62
2021/04/28 02:36:28;;;;;;;;;;;15.00;99.90;;;14.57;100.00;99873.25;5048859;28;19964;-62
2021/04/28 02:39:00;;;;;;;;;;;15.10;99.90;;;14.61;100.00;99876.09;5052268;28;19982;-62
2021/04/28 02:41:27;;;;;;;;;;;15.10;99.90;;;14.64;100.00;99873.47;5051561;28;20422;-62
2021/04/28 02:43:54;;;;;;;;;;;15.10;99.90;;;14.67;100.00;99872.81;5051432;28;20027;-62
2021/04/28 02:46:22;;;;;;;;;;;15.10;99.90;;;14.67;100.00;99866.56;5053196;28;19976;-62
2021/04/28 02:48:50;;;;;;;;;;;15.20;99.90;;;14.72;100.00;99874.50;5056324;28;19979;-62
2021/04/28 02:51:18;;;;;;;;;;;15.20;99.90;;;14.77;100.00;99869.59;5055631;28;20339;-62
2021/04/28 02:53:46;;;;;;;;;;;15.30;99.90;;;14.83;100.00;99866.69;5055354;28;20366;-62
2021/04/28 02:56:14;;;;;;;;;;;15.30;99.90;;;14.85;100.00;99878.00;5055744;28;19998;-62
2021/04/28 02:58:42;;;;;;;;;;;15.30;99.90;;;14.87;100.00;99868.38;5055948;28;20449;-62
2021/04/28 03:01:09;;;;;;;;;;;15.40;99.90;;;14.93;100.00;99866.19;5055445;28;19935;-62
2021/04/28 03:03:39;;;;;;;;;;;15.40;99.90;;;14.93;100.00;99864.28;5055360;28;19932;-62
2021/04/28 03:06:07;;;;;;;;;;;15.40;99.90;;;14.93;99.65;99866.19;5055784;28;19925;-62
2021/04/28 03:08:37;;;;;;;;;;;15.40;99.90;;;14.90;99.07;99862.25;5055686;28;19931;-62
2021/04/28 03:11:04;;;;;;;;;;;15.40;99.90;;;14.84;98.70;99863.59;5055212;28;19924;-63
2021/04/28 03:13:32;;;;;;;;;;;15.40;99.90;;;14.82;98.14;99860.44;5055214;28;19967;-62
2021/04/28 03:15:59;;;;;;;;;;;15.30;99.90;;;14.82;98.55;99854.19;5055713;28;20378;-63
2021/04/28 03:18:27;;;;;;;;;;;15.30;99.90;;;14.80;98.98;99859.19;5055809;28;20032;-62
2021/04/28 03:20:54;;;;;;;;;;;15.30;99.90;;;14.76;98.47;99859.06;5054996;28;19925;-62
2021/04/28 03:23:22;;;;;;;;;;;15.30;99.90;;;14.71;98.84;99860.09;5055044;28;19972;-62
2021/04/28 03:25:50;;;;;;;;;;;15.20;99.90;;;14.73;99.28;99855.13;5055243;28;20406;-62
2021/04/28 03:28:17;;;;;;;;;;;15.20;99.90;;;14.74;98.48;99866.81;5054983;28;19955;-63
2021/04/28 03:30:44;;;;;;;;;;;15.30;99.90;;;14.77;98.40;99855.22;5055098;28;20083;-62
2021/04/28 03:33:12;;;;;;;;;;;15.30;99.90;;;14.75;98.17;99854.75;5054727;28;19978;-62
2021/04/28 03:35:39;;;;;;;;;;;15.30;99.90;;;14.77;97.61;99855.22;5054968;28;19928;-63
2021/04/28 03:38:06;;;;;;;;;;;15.30;99.90;;;14.75;97.24;99854.75;5055350;28;20272;-62
2021/04/28 03:40:33;;;;;;;;;;;15.30;99.90;;;14.75;97.16;99857.47;5055230;28;19929;-62
2021/04/28 03:43:01;;;;;;;;;;;15.30;99.90;;;14.72;96.79;99855.44;5054436;28;20027;-62
2021/04/28 03:45:28;;;;;;;;;;;15.30;99.90;;;14.74;96.98;99855.91;5054639;28;20161;-62
2021/04/28 03:47:55;;;;;;;;;;;15.20;99.90;;;14.71;96.61;99848.44;5055251;28;19975;-62
2021/04/28 03:50:22;;;;;;;;;;;15.20;99.90;;;14.64;96.57;99849.00;5054961;28;20022;-62
2021/04/28 03:52:49;;;;;;;;;;;15.10;99.90;;;14.58;96.31;99849.56;5054197;28;20023;-62
2021/04/28 03:55:16;;;;;;;;;;;15.10;99.90;;;14.52;96.50;99850.91;5054626;28;19963;-62
2021/04/28 03:57:44;;;;;;;;;;;15.00;99.90;;;14.49;96.69;99855.09;5054664;28;19925;-62
2021/04/28 04:00:13;;;;;;;;;;;15.00;99.90;;;14.41;96.21;99847.81;5054743;28;19979;-62
2021/04/28 04:02:40;;;;;;;;;;;14.90;99.90;;;14.40;96.92;99853.63;5054259;28;20295;-63
2021/04/28 04:05:09;;;;;;;;;;;14.90;99.90;;;14.38;97.58;99851.22;5054259;28;20334;-62
2021/04/28 04:07:36;;;;;;;;;;;14.90;99.90;;;14.38;97.34;99851.22;5054780;28;19925;-62
2021/04/28 04:10:05;;;;;;;;;;;14.90;99.90;;;14.32;97.04;99849.81;5054643;28;20375;-61
2021/04/28 04:12:32;;;;;;;;;;;14.80;99.90;;;14.30;97.69;99843.94;5053938;28;20459;-62
2021/04/28 04:14:59;;;;;;;;;;;14.80;99.90;;;14.31;98.29;99831.94;5054223;28;19968;-62
2021/04/28 04:17:27;;;;;;;;;;;14.80;99.90;;;14.33;99.12;99845.22;5054417;28;20023;-62
2021/04/28 04:19:55;;;;;;;;;;;14.90;99.90;;;14.36;99.01;99836.38;5054486;28;20015;-62
2021/04/28 04:22:22;;;;;;;;;;;14.90;99.90;;;14.42;98.90;99832.31;5053197;28;19980;-62
2021/04/28 04:24:49;;;;;;;;;;;14.90;99.90;;;14.47;99.10;99843.75;5053867;28;19983;-62
2021/04/28 04:27:16;;;;;;;;;;;15.00;99.90;;;14.52;98.72;99837.31;5054403;28;19947;-62
2021/04/28 04:29:43;;;;;;;;;;;15.00;99.90;;;14.55;99.08;99837.44;5054480;28;19968;-62
2021/04/28 04:32:10;;;;;;;;;;;15.10;99.90;;;14.63;98.92;99835.72;5053512;28;20019;-62
2021/04/28 04:34:39;;;;;;;;;;;15.10;99.90;;;14.65;98.47;99834.22;5053705;28;20023;-62
2021/04/28 04:37:06;;;;;;;;;;;15.20;99.90;;;14.68;98.96;99835.50;5054074;28;20019;-62
2021/04/28 04:39:33;;;;;;;;;;;15.20;99.90;;;14.69;99.04;99839.78;5054188;28;19925;-62
2021/04/28 04:42:00;;;;;;;;;;;15.20;99.90;;;14.72;99.22;99839.13;5053335;28;20340;-62
2021/04/28 04:44:28;;;;;;;;;;;15.30;99.90;;;14.75;99.65;99841.16;5053285;28;20121;-62
2021/04/28 04:46:55;;;;;;;;;;;15.30;99.90;;;14.77;99.75;99834.22;5053726;28;19933;-62
2021/04/28 04:49:22;;;;;;;;;;;15.40;99.90;;;14.78;99.63;99838.53;5054152;28;20040;-62
2021/04/28 04:51:50;;;;;;;;;;;15.40;99.90;;;14.81;99.43;99828.91;5053314;28;20027;-62
2021/04/28 04:54:17;;;;;;;;;;;15.40;99.90;;;14.83;98.92;99840.25;5053533;28;19971;-62
2021/04/28 04:56:44;;;;;;;;;;;15.40;99.90;;;14.84;99.16;99839.09;5053812;28;20395;-62
2021/04/28 04:59:11;;;;;;;;;;;15.40;99.90;;;14.82;99.13;99826.97;5053515;28;20344;-62
2021/04/28 05:01:39;;;;;;;;;;;15.40;99.90;;;14.82;98.75;99830.50;5052944;28;20031;-62
2021/04/28 05:04:07;;;;;;;;;;;15.40;99.90;;;14.83;98.74;99834.03;5053491;28;19925;-62
2021/04/28 05:06:34;;;;;;;;;;;15.40;99.90;;;14.85;98.30;99842.63;5053873;28;20358;-62
2021/04/28 05:09:02;;;;;;;;;;;15.40;99.90;;;14.85;97.84;99842.63;5053042;28;19925;-62
2021/04/28 05:11:29;;;;;;;;;;;15.40;99.90;;;14.84;98.50;99836.38;5052712;28;19935;-62
2021/04/28 05:13:56;;;;;;;;;;;15.40;99.90;;;14.82;98.42;99841.38;5052219;28;19972;-62
2021/04/28 05:16:23;;;;;;;;;;;15.40;99.90;;;14.78;97.67;99845.91;5033644;28;20376;-62
2021/04/28 05:18:50;;;;;;;;;;;15.30;99.90;;;14.75;97.79;99843.88;5033321;28;20028;-63
2021/04/28 05:21:17;;;;;;;;;;;15.30;99.90;;;14.75;97.54;99844.66;5032747;28;19925;-62
2021/04/28 05:23:45;;;;;;;;;;;15.30;99.90;;;14.75;97.23;99839.22;5032833;28;19929;-62
2021/04/28 05:26:13;;;;;;;;;;;15.30;99.90;;;14.71;96.63;99838.31;5033293;28;19948;-62
2021/04/28 05:28:40;;;;;;;;;;;15.30;99.90;;;14.65;96.20;99847.06;5033116;28;19952;-62
2021/04/28 05:31:07;;;;;;;;;;;15.20;99.90;;;14.60;96.42;99845.34;5032642;28;19971;-62
2021/04/28 05:33:35;;;;;;;;;;;15.20;99.90;;;14.59;96.22;99843.00;5032830;28;19925;-62
2021/04/28 05:36:03;;;;;;;;;;;15.10;99.90;;;14.56;96.07;99852.59;5032955;28;20023;-62
2021/04/28 05:38:30;;;;;;;;;;;15.10;99.90;;;14.58;96.43;99847.63;5033123;28;20415;-61
2021/04/28 05:40:57;;;;;;;;;;;15.10;99.90;;;14.58;96.09;99852.28;5032348;28;20023;-62
2021/04/28 05:43:25;;;;;;;;;;;15.10;99.90;;;14.65;96.07;99855.22;5032936;28;19959;-62
2021/04/28 05:45:52;;;;;;;;;;;15.20;99.90;;;14.69;96.11;99856.13;5032443;28;20366;-62
2021/04/28 05:48:20;;;;;;;;;;;15.20;99.90;;;14.74;96.48;99853.19;5032817;28;19957;-62
2021/04/28 05:50:47;;;;;;;;;;;15.30;99.90;;;14.78;96.23;99854.06;5032512;28;19929;-62
2021/04/28 05:53:14;;;;;;;;;;;15.30;99.90;;;14.83;96.80;99859.31;5032919;28;19960;-62
2021/04/28 05:55:42;;;;;;;;;;;15.40;99.90;;;14.87;96.62;99859.41;5032499;28;19979;-62
2021/04/28 05:58:09;;;;;;;;;;;15.40;99.90;;;14.93;96.34;99852.59;5032837;28;19968;-61
2021/04/28 06:00:37;;;;;;;;;;;15.40;99.90;;;15.10;95.58;99861.34;5032498;28;20447;-61
2021/04/28 06:03:05;;;;;;;;;;;15.70;99.90;;;15.63;92.99;99853.94;5032660;28;19968;-62
2021/04/28 06:05:33;;;;;;;;;;;16.30;99.90;;;16.31;88.67;99849.97;5032368;28;20374;-62
2021/04/28 06:08:00;;;;;;;;;;;16.50;99.90;;;16.92;84.53;99853.06;5039503;28;20418;-62
2021/04/28 06:10:27;;;;;;;;;;;17.60;99.90;;;17.69;80.49;99844.97;5052418;28;19975;-62
2021/04/28 06:12:54;;;;;;;;;;;17.70;99.90;;;18.01;77.20;99857.31;5052016;28;21751;-62
2021/04/28 06:15:21;;;;;;;;;;;18.10;99.90;;;17.81;77.82;99850.28;5052059;28;19968;-63
2021/04/28 06:17:49;;;;;;;;;;;;;;;18.18;76.53;99845.09;5052521;28;19967;-62
2021/04/28 06:20:17;;;;;;;;;;;18.40;99.90;;;17.98;77.71;99855.31;5052017;28;19925;-63
2021/04/28 06:22:45;;;;;;;;;;;18.60;99.90;;;19.00;73.24;99855.47;5051727;28;19933;-63
2021/04/28 06:25:14;;;;;;;;;;;19.70;99.90;;;20.11;68.24;99853.78;5051887;28;20405;-62
2021/04/28 06:27:41;;;;;;;;;;;19.90;99.90;;;21.28;63.47;99843.78;5052438;28;19932;-63
2021/04/28 06:30:09;;;;;;;;;;;21.70;99.90;;;22.14;59.76;99835.44;5052050;28;19952;-63
2021/04/28 06:32:37;;;;;;;;;;;22.60;99.90;;;22.76;56.57;99844.97;5051698;28;19967;-63
2021/04/28 06:35:06;;;;;;;;;;;22.10;99.90;;;21.33;60.62;99846.94;5051747;28;20422;-63
2021/04/28 06:37:33;;;;;;;;;;;21.30;99.90;;;20.27;64.73;99854.38;5052304;28;19964;-62
2021/04/28 06:40:00;;;;;;;;;;;20.80;99.90;;;21.17;61.98;99854.69;5051975;28;19979;-63
2021/04/28 06:42:27;;;;;;;;;;;21.30;99.90;;;20.32;63.80;99853.22;5051679;28;20380;-63
2021/04/28 06:44:54;;;;;;;;;;;20.90;99.90;;;19.78;66.33;99854.59;5051399;28;20023;-63
2021/04/28 06:47:21;;;;;;;;;;;20.30;99.90;;;19.05;68.74;99864.19;5052343;28;19956;-62
2021/04/28 06:49:49;;;;;;;;;;;19.70;99.90;;;18.24;72.75;99871.03;5051935;28;19956;-62
2021/04/28 06:52:17;;;;;;;;;;;18.80;99.90;;;18.36;75.18;99864.59;5051546;28;19925;-62
2021/04/28 06:54:44;;;;;;;;;;;19.10;99.90;;;19.77;69.58;99861.25;5051756;28;19978;-63
2021/04/28 06:57:11;;;;;;;;;;;20.80;99.90;;;20.30;65.79;99872.84;5052305;28;20027;-63
2021/04/28 06:59:39;;;;;;;;;;;;;;;19.52;67.82;99871.91;5052319;28;20102;-63
2021/04/28 07:02:07;;;;;;;;;;;20.30;99.90;;;18.92;71.81;99870.22;5050827;28;20003;-62
2021/04/28 07:04:34;;;;;;;;;;;19.60;99.90;;;18.42;73.96;99876.84;5051466;28;19933;-62
2021/04/28 07:07:01;;;;;;;;;;;19.20;99.90;;;18.01;76.13;99875.69;5052144;28;19932;-62
2021/04/28 07:09:29;;;;;;;;;;;18.80;99.90;;;17.66;78.52;99874.97;5052031;28;20051;-62
2021/04/28 07:11:57;;;;;;;;;;;18.50;99.90;;;17.41;81.05;99880.69;5051327;28;20392;-62
2021/04/28 07:14:24;;;;;;;;;;;18.20;99.90;;;17.10;84.84;99879.97;5051388;28;19929;-62
2021/04/28 07:16:51;;;;;;;;;;;17.90;99.90;;;16.82;87.75;99882.81;5051781;28;19974;-63
2021/04/28 07:19:19;;;;;;;;;;;17.70;99.90;;;16.72;89.56;99877.88;5051821;28;19948;-62
2021/04/28 07:21:46;;;;;;;;;;;17.50;99.90;;;16.59;90.87;99881.88;5051135;28;19932;-62
2021/04/28 07:24:13;;;;;;;;;;;17.40;99.90;;;16.51;92.08;99886.31;5051006;28;19968;-62
2021/04/28 07:26:41;;;;;;;;;;;17.30;99.90;;;16.38;92.02;99888.31;5051762;28;19968;-62
2021/04/28 07:29:08;;;;;;;;;;;17.20;99.90;;;16.32;92.92;99888.97;5051799;28;20022;-62
2021/04/28 07:31:35;;;;;;;;;;;17.00;99.90;;;16.24;94.93;99892.63;5051090;28;19976;-62
2021/04/28 07:34:03;;;;;;;;;;;17.00;99.90;;;16.12;96.17;99896.22;5054951;28;20392;-62
2021/04/28 07:36:30;;;;;;;;;;;16.90;99.90;;;15.93;98.42;99908.94;5055291;28;20398;-62
2021/04/28 07:38:57;;;;;;;;;;;16.70;99.90;;;15.76;100.00;99904.53;5055582;28;20377;-62
2021/04/28 07:41:24;;;;;;;;;;;16.60;99.90;;;15.68;100.00;99908.22;5054443;28;19925;-62
2021/04/28 07:43:53;;;;;;;;;;;;;;;15.61;100.00;99916.19;5054720;28;19925;-61
2021/04/28 07:46:20;;;;;;;;;;;16.40;99.90;;;15.58;100.00;99914.16;5055111;28;20391;-61
2021/04/28 07:48:47;;;;;;;;;;;16.30;99.90;;;15.58;100.00;99920.38;5055359;28;19964;-62
2021/04/28 07:51:16;;;;;;;;;;;16.30;99.90;;;15.59;100.00;99911.09;5054285;28;19925;-62
2021/04/28 07:53:43;;;;;;;;;;;16.30;99.90;;;15.69;100.00;99913.31;5048208;28;19961;-62
2021/04/28 07:56:10;;;;;;;;;;;16.40;99.90;;;15.78;100.00;99922.13;5034973;28;19937;-62
2021/04/28 07:58:37;;;;;;;;;;;16.40;99.90;;;15.96;100.00;99914.47;5034968;28;20388;-62
2021/04/28 08:01:05;;;;;;;;;;;16.60;99.90;;;16.14;100.00;99917.69;5034265;28;19929;-62
2021/04/28 08:03:32;;;;;;;;;;;16.80;99.90;;;16.32;100.00;99919.75;5035018;28;20353;-62
2021/04/28 08:05:59;;;;;;;;;;;16.90;99.90;;;16.31;100.00;99911.91;5034666;28;20027;-62
2021/04/28 08:08:26;;;;;;;;;;;16.90;99.90;;;16.22;100.00;99924.94;5035005;28;20023;-63
2021/04/28 08:10:53;;;;;;;;;;;16.90;99.90;;;16.17;100.00;99936.88;5033913;28;19960;-62
2021/04/28 08:13:21;;;;;;;;;;;16.80;99.90;;;16.04;100.00;99931.81;5034586;28;20040;-62
2021/04/28 08:15:48;;;;;;;;;;;16.70;99.90;;;16.01;100.00;99927.88;5034452;28;19968;-62
2021/04/28 08:18:16;;;;;;;;;;;16.70;99.90;;;15.99;100.00;99929.34;5034682;28;19926;-62
2021/04/28 08:20:45;;;;;;;;;;;16.60;99.90;;;15.98;100.00;99934.00;5033887;28;19968;-62
2021/04/28 08:23:12;;;;;;;;;;;16.60;99.90;;;16.14;100.00;99932.09;5034467;28;20023;-62
2021/04/28 08:25:39;;;;;;;;;;;16.70;99.90;;;16.32;100.00;99927.91;5034236;28;19925;-62
2021/04/28 08:28:06;;;;;;;;;;;16.80;99.90;;;16.47;100.00;99936.50;5034736;28;19929;-62
2021/04/28 08:30:33;;;;;;;;;;;17.00;99.90;;;16.57;100.00;99936.00;5034106;28;20355;-63
2021/04/28 08:33:01;;;;;;;;;;;17.00;99.90;;;16.79;100.00;99936.19;5033892;28;20023;-62
2021/04/28 08:35:29;;;;;;;;;;;17.20;99.90;;;16.81;99.21;99936.63;5034267;28;19968;-62
2021/04/28 08:37:56;;;;;;;;;;;17.30;99.90;;;16.73;98.87;99945.81;5034350;28;19972;-62
2021/04/28 08:40:23;;;;;;;;;;;17.30;99.90;;;16.67;99.14;99932.75;5034011;28;19968;-62
2021/04/28 08:42:51;;;;;;;;;;;17.30;99.90;;;16.65;100.00;99945.97;5033720;28;19935;-62
2021/04/28 08:45:18;;;;;;;;;;;17.20;99.90;;;16.63;100.00;99940.06;5033182;28;20019;-62
2021/04/28 08:47:45;;;;;;;;;;;17.20;99.90;;;16.66;100.00;99942.88;5054170;28;20023;-62
2021/04/28 08:50:14;;;;;;;;;;;17.20;99.90;;;16.91;100.00;99946.25;5053803;28;19976;-62
2021/04/28 08:52:42;;;;;;;;;;;17.50;99.90;;;17.12;99.96;99945.94;5053346;28;19925;-62
2021/04/28 08:55:11;;;;;;;;;;;17.60;99.90;;;17.19;100.00;99948.88;5053216;28;19960;-62
2021/04/28 08:57:38;;;;;;;;;;;17.70;99.90;;;17.16;100.00;99950.38;5053857;28;19932;-62
2021/04/28 09:00:09;;;;;;;;;;;17.80;99.90;;;17.06;100.00;99956.38;5053801;28;19968;-62
2021/04/28 09:02:36;;;;;;;;;;;17.70;99.90;;;16.83;100.00;99955.41;5053184;28;19946;-62
2021/04/28 09:05:10;;;;;;;;;;;17.50;99.90;;;16.72;99.92;99957.06;5052923;28;20205;-62
2021/04/28 09:07:38;;;;;;;;;;;17.30;99.90;;;16.71;100.00;99959.03;5053783;28;19924;-62
2021/04/28 09:10:08;;;;;;;;;;;17.30;99.90;;;16.73;100.00;99956.72;5053632;28;20019;-62
2021/04/28 09:12:36;;;;;;;;;;;17.40;99.90;;;16.63;100.00;99953.69;5052833;28;19925;-62
2021/04/28 09:15:04;;;;;;;;;;;17.30;99.90;;;16.29;99.97;99966.81;5053073;28;19956;-62
2021/04/28 09:17:31;;;;;;;;;;;17.00;99.90;;;16.06;100.00;99973.97;5053348;28;20059;-61
2021/04/28 09:20:14;;;;;;;;;;;16.70;99.90;;;15.84;100.00;99985.38;5053335;28;19964;-62
2021/04/28 09:22:48;;;;;;;;;;;16.60;99.90;;;15.86;100.00;99994.03;5052777;28;20364;-61
2021/04/28 09:25:34;;;;;;;;;;;16.50;99.90;;;15.92;100.00;99989.13;5053004;28;20035;-62
2021/04/28 09:28:37;;;;;;;;;;;16.60;99.90;;;16.12;100.00;99996.31;5053244;28;20027;-62
2021/04/28 09:31:15;;;;;;;;;;;16.80;99.90;;;16.34;100.00;99990.34;5052616;28;20359;-62
2021/04/28 09:34:00;;;;;;;;;;;16.90;99.90;;;16.56;100.00;99992.53;5052994;28;20051;-62
2021/04/28 09:36:33;;;;;;;;;;;17.10;99.90;;;16.78;100.00;99991.13;5053134;28;19936;-62
2021/04/28 09:39:05;;;;;;;;;;;17.30;99.90;;;16.93;100.00;99991.16;5052878;28;19948;-62
2021/04/28 09:41:38;;;;;;;;;;;17.50;99.90;;;17.10;100.00;99992.75;5052264;28;19925;-62
2021/04/28 09:44:23;;;;;;;;;;;17.70;99.90;;;17.15;100.00;100003.41;5052751;28;20280;-62
2021/04/28 09:46:58;;;;;;;;;;;17.80;99.90;;;17.12;99.98;99998.66;5052908;28;19936;-62
2021/04/28 09:49:26;;;;;;;;;;;17.80;99.90;;;17.13;99.93;100007.66;5052890;28;20395;-62
2021/04/28 09:52:02;;;;;;;;;;;17.80;99.90;;;17.27;100.00;100006.06;5051898;28;19974;-63
2021/04/28 09:54:30;;;;;;;;;;;17.90;99.90;;;17.31;98.33;100001.47;5052316;28;20398;-62
2021/04/28 09:56:59;;;;;;;;;;;17.90;99.90;;;17.46;99.33;100010.78;5052552;28;20314;-62
2021/04/28 09:59:46;;;;;;;;;;;18.00;99.90;;;17.70;97.54;100012.53;5052750;28;19968;-62
2021/04/28 10:02:14;;;;;;;;;;;18.30;99.90;;;17.94;95.84;100012.28;5051903;28;19931;-62
2021/04/28 10:04:41;;;;;;;;;;;18.70;99.90;;;18.08;93.96;100006.34;5052083;28;19975;-62
2021/04/28 10:07:08;;;;;;;;;;;18.70;99.90;;;18.19;91.91;100002.66;5052786;28;19925;-63
2021/04/28 10:09:36;;;;;;;;;;;;;;;18.32;87.64;100017.81;5052481;28;20457;-62
2021/04/28 10:12:05;;;;;;;;;;;19.20;99.90;;;18.68;89.02;100011.09;5051660;28;20431;-62
2021/04/28 10:14:33;;;;;;;;;;;19.40;99.90;;;18.99;85.38;100002.66;5052313;28;19931;-62
2021/04/28 10:17:03;;;;;;;;;;;19.60;99.90;;;19.10;82.70;99995.41;5052400;28;19979;-62
2021/04/28 10:19:31;;;;;;;;;;;19.70;99.90;;;19.46;85.69;100002.25;5052500;28;20019;-62
2021/04/28 10:22:01;;;;;;;;;;;20.10;99.90;;;19.91;82.17;100003.31;5051421;28;19970;-62
2021/04/28 10:24:30;;;;;;;;;;;;;;;20.18;80.77;99997.38;5051970;28;20027;-62
2021/04/28 10:26:57;;;;;;;;;;;20.80;99.90;;;20.32;79.57;99996.00;5052227;28;20445;-62
2021/04/28 10:29:26;;;;;;;;;;;20.90;99.90;;;19.96;79.18;100001.03;5052596;28;19964;-62
2021/04/28 10:31:54;;;;;;;;;;;20.70;99.90;;;19.63;79.72;99998.22;5051004;28;19968;-62
2021/04/28 10:34:25;;;;;;;;;;;20.50;99.90;;;19.36;79.60;100000.09;5051971;28;20039;-62
2021/04/28 10:36:54;;;;;;;;;;;20.20;99.90;;;19.10;82.63;100003.63;5052122;28;19972;-63
2021/04/28 10:39:23;;;;;;;;;;;19.90;99.90;;;19.00;84.82;100009.69;5052547;28;19925;-62
2021/04/28 10:41:52;;;;;;;;;;;19.80;99.90;;;18.82;82.04;100010.53;5051419;28;19994;-62
2021/04/28 10:44:48;;;;;;;;;;;19.60;99.90;;;18.52;85.02;100004.91;5051834;28;19932;-62
2021/04/28 10:47:35;;;;;;;;;;;19.40;99.90;;;18.48;85.50;100004.81;5052167;28;19983;-62
2021/04/28 10:50:20;;;;;;;;;;;19.30;99.90;;;18.49;85.37;99995.47;5051907;28;19924;-62
2021/04/28 10:52:51;;;;;;;;;;;19.20;99.90;;;19.12;86.31;100000.50;5051502;28;19971;-62
2021/04/28 10:55:43;;;;;;;;;;;19.70;99.90;;;19.75;83.40;99988.97;5051662;28;19932;-62
2021/04/28 10:58:50;;;;;;;;;;;20.50;99.90;;;20.06;81.84;99997.59;5052195;28;19928;-62
2021/04/28 11:01:33;;;;;;;;;;;20.50;99.90;;;20.80;77.85;99985.91;5051340;28;19925;-62
2021/04/28 11:04:00;;;;;;;;;;;21.50;99.90;;;21.03;75.45;99992.03;5051358;28;19929;-63
2021/04/28 11:06:35;;;;;;;;;;;21.60;99.90;;;20.91;73.91;99995.06;5051748;28;19936;-63
2021/04/28 11:09:13;;;;;;;;;;;21.70;99.90;;;21.31;73.31;99989.50;5056051;28;20352;-62
2021/04/28 11:11:42;;;;;;;;;;;21.90;99.90;;;21.28;71.01;99984.00;5055088;28;19979;-62
2021/04/28 11:14:51;;;;;;;;;;;22.00;99.90;;;20.70;67.44;99998.41;5055249;28;20303;-62
2021/04/28 11:17:26;;;;;;;;;;;21.70;99.90;;;20.42;71.30;100003.56;5015624;28;20386;-62
2021/04/28 11:19:55;;;;;;;;;;;21.40;99.90;;;21.08;70.36;99984.25;5055568;28;19924;-62
2021/04/28 11:22:24;;;;;;;;;;;21.60;99.90;;;21.28;67.34;99993.03;5055014;28;19925;-62